Time;durP1;ratioP1;P1;durP2;ratioP2;P2;SDS_P1;SDS_P2;PMS_P1;PMS_P2;Temp;Humidity;BMP_temperature;BMP_pressure;BME280_temperature;BME280_humidity;BME280_pressure;Samples;Min_cycle;Max_cycle;Signal;HPM_P1;HPM_P2
2022/01/06 00:01:27;;;;;;;36.08;15.35;;;;;;;;;;5008623;28;20190;-67
2022/01/06 00:03:54;;;;;;;29.70;15.38;;;;;;;;;;4996604;28;20038;-66
2022/01/06 00:06:22;;;;;;;27.58;14.23;;;;;;;;;;4962734;28;20030;-67
2022/01/06 00:08:48;;;;;;;33.33;15.30;;;;;;;;;;5002152;28;20084;-66
2022/01/06 00:11:14;;;;;;;34.20;14.18;;;;;;;;;;5000067;28;20034;-67
2022/01/06 00:13:50;;;;;;;33.75;14.88;;;;;;;;;;4996947;28;20450;-67
2022/01/06 00:16:31;;;;;;;33.92;14.13;;;;;;;;;;4983306;28;20433;-66
2022/01/06 00:24:18;;;;;;;24.23;13.55;;;;;;;;;;4983924;28;20037;-66
2022/01/06 00:26:45;;;;;;;29.33;12.80;;;;;;;;;;5004734;28;20026;-66
2022/01/06 00:29:11;;;;;;;25.50;12.38;;;;;;;;;;5005122;28;20493;-66
2022/01/06 00:31:37;;;;;;;22.25;11.60;;;;;;;;;;4998123;28;20517;-66
2022/01/06 00:34:05;;;;;;;23.15;10.88;;;;;;;;;;5008893;28;20022;-66
2022/01/06 00:36:33;;;;;;;24.25;11.18;;;;;;;;;;4999726;28;20033;-66
2022/01/06 00:38:59;;;;;;;15.10;9.10;;;;;;;;;;5002784;28;20129;-66
2022/01/06 00:41:25;;;;;;;15.68;10.05;;;;;;;;;;4994540;28;20042;-66
2022/01/06 00:43:51;;;;;;;24.23;10.27;;;;;;;;;;5009243;28;20018;-66
2022/01/06 00:46:17;;;;;;;17.52;9.48;;;;;;;;;;4993647;28;20549;-67
2022/01/06 00:48:43;;;;;;;17.10;9.48;;;;;;;;;;5000607;28;20053;-66
2022/01/06 00:51:09;;;;;;;20.02;8.55;;;;;;;;;;5001516;28;20359;-66
2022/01/06 00:53:36;;;;;;;25.27;9.77;;;;;;;;;;5008036;28;20030;-66
2022/01/06 00:56:02;;;;;;;16.90;8.63;;;;;;;;;;4994827;28;20034;-66
2022/01/06 00:58:28;;;;;;;21.15;10.32;;;;;;;;;;5007234;28;20058;-66
2022/01/06 01:00:54;;;;;;;17.70;10.18;;;;;;;;;;4996754;28;20022;-66
2022/01/06 01:03:21;;;;;;;19.38;9.20;;;;;;;;;;4992289;28;20121;-66
2022/01/06 01:05:49;;;;;;;21.17;10.05;;;;;;;;;;5009312;28;20363;-66
2022/01/06 01:08:15;;;;;;;20.00;9.07;;;;;;;;;;4996541;28;20026;-66
2022/01/06 01:10:42;;;;;;;20.90;8.88;;;;;;;;;;5005395;28;20390;-66
2022/01/06 01:13:10;;;;;;;19.88;9.00;;;;;;;;;;5003245;28;20029;-66
2022/01/06 01:15:44;;;;;;;30.35;10.68;;;;;;;;;;4998040;28;20026;-66
2022/01/06 01:18:13;;;;;;;22.35;10.75;;;;;;;;;;4994280;28;20026;-66
2022/01/06 01:20:39;;;;;;;20.00;9.65;;;;;;;;;;4999279;28;20033;-66
2022/01/06 01:23:05;;;;;;;18.15;9.63;;;;;;;;;;5001742;28;20030;-66
2022/01/06 01:25:31;;;;;;;17.02;9.52;;;;;;;;;;5006542;28;20540;-66
2022/01/06 01:27:58;;;;;;;14.32;7.88;;;;;;;;;;4995544;28;20061;-66
2022/01/06 01:30:38;;;;;;;25.80;10.60;;;;;;;;;;4989783;28;20447;-66
2022/01/06 01:33:05;;;;;;;20.05;9.07;;;;;;;;;;4998173;28;20085;-66
2022/01/06 01:35:32;;;;;;;20.95;10.48;;;;;;;;;;4992890;28;20022;-66
2022/01/06 01:37:59;;;;;;;21.80;10.90;;;;;;;;;;5008157;28;20089;-66
2022/01/06 01:40:26;;;;;;;16.15;9.27;;;;;;;;;;4997008;28;20036;-66
2022/01/06 01:42:52;;;;;;;19.63;10.15;;;;;;;;;;5003899;28;20384;-66
2022/01/06 01:45:18;;;;;;;17.50;10.45;;;;;;;;;;4992510;28;20030;-66
2022/01/06 01:47:45;;;;;;;24.20;12.15;;;;;;;;;;4992675;28;20038;-66
2022/01/06 01:50:15;;;;;;;24.67;11.70;;;;;;;;;;5008091;28;20042;-66
2022/01/06 01:52:43;;;;;;;29.38;12.50;;;;;;;;;;5002410;28;20501;-66
2022/01/06 01:55:10;;;;;;;19.45;10.68;;;;;;;;;;5003922;28;20113;-66
2022/01/06 01:57:36;;;;;;;28.15;12.20;;;;;;;;;;5002437;28;20023;-66
2022/01/06 02:00:04;;;;;;;24.77;11.70;;;;;;;;;;4982068;28;20057;-66
2022/01/06 02:02:38;;;;;;;25.02;11.32;;;;;;;;;;5012257;28;20030;-66
2022/01/06 02:05:05;;;;;;;25.13;13.50;;;;;;;;;;5007496;28;20026;-67
2022/01/06 02:07:33;;;;;;;29.42;13.27;;;;;;;;;;4999256;28;20030;-66
2022/01/06 02:09:59;;;;;;;22.45;11.95;;;;;;;;;;5014562;28;20038;-66
2022/01/06 02:12:27;;;;;;;26.67;12.80;;;;;;;;;;5002679;28;20018;-66
2022/01/06 02:14:53;;;;;;;21.63;13.15;;;;;;;;;;5010283;28;20022;-66
2022/01/06 02:17:20;;;;;;;21.52;11.23;;;;;;;;;;5001477;28;20438;-66
2022/01/06 02:19:56;;;;;;;20.35;11.00;;;;;;;;;;4999008;28;20037;-66
2022/01/06 02:22:22;;;;;;;23.15;11.65;;;;;;;;;;5014681;28;20150;-66
2022/01/06 02:24:49;;;;;;;26.60;12.45;;;;;;;;;;5005966;28;20513;-66
2022/01/06 02:27:15;;;;;;;24.08;11.82;;;;;;;;;;5007400;28;20033;-66
2022/01/06 02:29:42;;;;;;;21.73;10.48;;;;;;;;;;5005397;28;20031;-66
2022/01/06 02:32:09;;;;;;;28.83;10.25;;;;;;;;;;4999980;28;20026;-66
2022/01/06 02:34:35;;;;;;;24.27;9.30;;;;;;;;;;4995347;28;20466;-66
2022/01/06 02:37:02;;;;;;;17.20;8.05;;;;;;;;;;5007307;28;20030;-66
2022/01/06 02:39:28;;;;;;;19.52;9.68;;;;;;;;;;5005915;28;20041;-66
2022/01/06 02:41:54;;;;;;;18.38;10.13;;;;;;;;;;5014200;28;20029;-66
2022/01/06 02:44:25;;;;;;;21.85;9.82;;;;;;;;;;4997980;28;20038;-66
2022/01/06 02:46:52;;;;;;;21.17;8.93;;;;;;;;;;5005567;28;20034;-66
2022/01/06 02:49:18;;;;;;;13.77;8.30;;;;;;;;;;5006904;28;20026;-66
2022/01/06 02:51:44;;;;;;;19.80;9.27;;;;;;;;;;5012452;28;20029;-66
2022/01/06 02:54:10;;;;;;;19.25;8.52;;;;;;;;;;5001382;28;20026;-66
2022/01/06 02:56:38;;;;;;;24.52;8.80;;;;;;;;;;5013390;28;20026;-66
2022/01/06 02:59:04;;;;;;;19.58;8.35;;;;;;;;;;4988698;28;20386;-67
2022/01/06 03:01:30;;;;;;;23.60;9.63;;;;;;;;;;5005044;28;20088;-66
2022/01/06 03:03:56;;;;;;;23.90;8.57;;;;;;;;;;4995684;28;20109;-66
2022/01/06 03:06:22;;;;;;;22.83;9.23;;;;;;;;;;4977046;28;20503;-66
2022/01/06 03:08:48;;;;;;;17.83;8.48;;;;;;;;;;4995063;28;20367;-66
2022/01/06 03:11:15;;;;;;;19.33;8.30;;;;;;;;;;4994871;28;20065;-66
2022/01/06 03:13:41;;;;;;;25.50;8.45;;;;;;;;;;4994687;28;20053;-67
2022/01/06 03:16:07;;;;;;;25.02;8.65;;;;;;;;;;5010816;28;20489;-66
2022/01/06 03:18:33;;;;;;;16.38;8.38;;;;;;;;;;4994819;28;20023;-66
2022/01/06 03:20:59;;;;;;;19.38;8.48;;;;;;;;;;5002600;28;20026;-66
2022/01/06 03:23:25;;;;;;;16.42;8.18;;;;;;;;;;5003365;28;20030;-67
2022/01/06 03:25:51;;;;;;;19.05;7.93;;;;;;;;;;5009319;28;20025;-66
2022/01/06 03:28:17;;;;;;;15.30;7.70;;;;;;;;;;4997245;28;20022;-66
2022/01/06 03:30:43;;;;;;;17.70;7.30;;;;;;;;;;4991563;28;20065;-67
2022/01/06 03:33:09;;;;;;;14.38;7.55;;;;;;;;;;5003085;28;20402;-67
2022/01/06 03:35:35;;;;;;;16.70;8.02;;;;;;;;;;5001638;28;20026;-66
2022/01/06 03:38:02;;;;;;;17.92;8.32;;;;;;;;;;5010359;28;20575;-66
2022/01/06 03:40:28;;;;;;;20.92;8.32;;;;;;;;;;4997648;28;20217;-66
2022/01/06 03:42:54;;;;;;;14.23;7.22;;;;;;;;;;5007333;28;20019;-66
2022/01/06 03:45:20;;;;;;;15.90;7.28;;;;;;;;;;4994464;28;20026;-66
2022/01/06 03:47:46;;;;;;;15.32;6.68;;;;;;;;;;5007886;28;20505;-66
2022/01/06 03:50:13;;;;;;;11.23;6.75;;;;;;;;;;4997288;28;20026;-66
2022/01/06 03:52:40;;;;;;;17.27;7.32;;;;;;;;;;5009478;28;20033;-66
2022/01/06 03:55:10;;;;;;;13.23;6.63;;;;;;;;;;5002152;28;20025;-66
2022/01/06 03:57:36;;;;;;;13.23;7.03;;;;;;;;;;5001645;28;20026;-66
2022/01/06 04:00:05;;;;;;;13.40;6.25;;;;;;;;;;5009760;28;20022;-66
2022/01/06 04:02:38;;;;;;;13.20;6.30;;;;;;;;;;4983174;28;20033;-66
2022/01/06 04:05:04;;;;;;;22.55;6.90;;;;;;;;;;5006003;28;20096;-66
2022/01/06 04:07:32;;;;;;;19.10;7.00;;;;;;;;;;4994057;28;20030;-66
2022/01/06 04:09:58;;;;;;;17.00;6.68;;;;;;;;;;5008545;28;20128;-66
2022/01/06 04:12:25;;;;;;;13.00;6.40;;;;;;;;;;4999327;28;20066;-66
2022/01/06 04:14:51;;;;;;;11.10;6.60;;;;;;;;;;5007923;28;20036;-66
2022/01/06 04:17:17;;;;;;;14.55;7.15;;;;;;;;;;5002902;28;20409;-66
2022/01/06 04:19:43;;;;;;;14.38;6.32;;;;;;;;;;5001042;28;20026;-66
2022/01/06 04:22:09;;;;;;;13.57;6.22;;;;;;;;;;5009741;28;20080;-66
2022/01/06 04:24:35;;;;;;;10.82;6.97;;;;;;;;;;4996745;28;20057;-66
2022/01/06 04:27:01;;;;;;;15.38;6.65;;;;;;;;;;4998746;28;20023;-66
2022/01/06 04:29:28;;;;;;;17.67;6.65;;;;;;;;;;5003687;28;20063;-66
2022/01/06 04:31:54;;;;;;;15.43;6.10;;;;;;;;;;4999277;28;20053;-66
2022/01/06 04:34:20;;;;;;;13.18;6.28;;;;;;;;;;5009345;28;20033;-66
2022/01/06 04:36:51;;;;;;;14.40;6.00;;;;;;;;;;4998541;28;20593;-66
2022/01/06 04:39:18;;;;;;;13.00;5.53;;;;;;;;;;5003359;28;20046;-66
2022/01/06 04:41:44;;;;;;;16.15;6.90;;;;;;;;;;5005956;28;20067;-66
2022/01/06 04:44:11;;;;;;;12.50;5.18;;;;;;;;;;4996767;28;20602;-66
2022/01/06 04:46:37;;;;;;;10.75;4.78;;;;;;;;;;4996733;28;20017;-66
2022/01/06 04:49:04;;;;;;;12.05;5.63;;;;;;;;;;4988699;28;20418;-66
2022/01/06 04:51:30;;;;;;;10.45;5.38;;;;;;;;;;5003422;28;20026;-66
2022/01/06 04:53:57;;;;;;;13.02;5.07;;;;;;;;;;4998248;28;20038;-67
2022/01/06 04:56:23;;;;;;;13.68;5.72;;;;;;;;;;4994444;28;20015;-67
2022/01/06 04:58:49;;;;;;;14.60;7.60;;;;;;;;;;5008074;28;20058;-66
2022/01/06 05:01:15;;;;;;;15.05;5.65;;;;;;;;;;4991657;28;20039;-66
2022/01/06 05:03:42;;;;;;;12.57;4.93;;;;;;;;;;4990355;28;20419;-66
2022/01/06 05:06:08;;;;;;;12.77;5.97;;;;;;;;;;4983556;28;20030;-66
2022/01/06 05:08:34;;;;;;;12.45;5.60;;;;;;;;;;5002685;28;20035;-66
2022/01/06 05:11:00;;;;;;;13.02;5.30;;;;;;;;;;4986799;28;20029;-66
2022/01/06 05:13:26;;;;;;;16.35;5.50;;;;;;;;;;5003904;28;20033;-66
2022/01/06 05:15:53;;;;;;;13.32;5.10;;;;;;;;;;4999275;28;20026;-66
2022/01/06 05:18:19;;;;;;;17.42;5.18;;;;;;;;;;5008665;28;20029;-66
2022/01/06 05:20:45;;;;;;;12.82;5.13;;;;;;;;;;4996766;28;20022;-66
2022/01/06 05:23:12;;;;;;;14.20;4.93;;;;;;;;;;5004626;28;20061;-67
2022/01/06 05:25:38;;;;;;;13.70;4.93;;;;;;;;;;4999208;28;20026;-66
2022/01/06 05:28:05;;;;;;;8.65;4.55;;;;;;;;;;4992252;28;20177;-66
2022/01/06 05:30:31;;;;;;;11.70;4.68;;;;;;;;;;4992398;28;20027;-66
2022/01/06 05:32:57;;;;;;;6.60;4.15;;;;;;;;;;4992868;28;20010;-66
2022/01/06 05:35:23;;;;;;;10.07;4.32;;;;;;;;;;4992542;28;20105;-66
2022/01/06 05:37:49;;;;;;;12.48;4.45;;;;;;;;;;4992232;28;20046;-66
2022/01/06 05:40:15;;;;;;;8.40;4.30;;;;;;;;;;4992909;28;20034;-67
2022/01/06 05:42:42;;;;;;;12.65;4.75;;;;;;;;;;4992346;28;20126;-66
2022/01/06 05:45:09;;;;;;;9.18;3.97;;;;;;;;;;4992495;28;20080;-66
2022/01/06 05:47:35;;;;;;;7.47;4.00;;;;;;;;;;4992483;28;20030;-66
2022/01/06 05:50:02;;;;;;;11.80;4.03;;;;;;;;;;4992712;28;20121;-66
2022/01/06 05:52:28;;;;;;;11.90;4.18;;;;;;;;;;4972551;28;20038;-66
2022/01/06 05:54:54;;;;;;;12.55;4.60;;;;;;;;;;4973436;28;20061;-67
2022/01/06 05:57:20;;;;;;;8.73;3.95;;;;;;;;;;4973227;28;20051;-66
2022/01/06 05:59:47;;;;;;;9.20;3.97;;;;;;;;;;4972975;28;20027;-67
2022/01/06 06:02:13;;;;;;;9.52;3.58;;;;;;;;;;4990467;28;20117;-66
2022/01/06 06:04:39;;;;;;;7.95;3.67;;;;;;;;;;4990141;28;20045;-66
2022/01/06 06:07:05;;;;;;;19.63;4.15;;;;;;;;;;5009818;28;20134;-66
2022/01/06 06:09:31;;;;;;;9.90;4.25;;;;;;;;;;5006378;28;20113;-66
2022/01/06 06:11:57;;;;;;;12.10;4.40;;;;;;;;;;4991126;28;20168;-66
2022/01/06 06:14:23;;;;;;;13.55;4.18;;;;;;;;;;4989969;28;20022;-66
2022/01/06 06:16:50;;;;;;;9.00;3.78;;;;;;;;;;4989470;28;20014;-66
2022/01/06 06:19:16;;;;;;;9.75;4.00;;;;;;;;;;4991883;28;20045;-66
2022/01/06 06:21:42;;;;;;;7.47;3.50;;;;;;;;;;4987037;28;20654;-66
2022/01/06 06:24:08;;;;;;;7.13;3.90;;;;;;;;;;4989803;28;20038;-66
2022/01/06 06:26:34;;;;;;;10.43;4.57;;;;;;;;;;4991065;28;20057;-66
2022/01/06 06:29:00;;;;;;;15.80;4.00;;;;;;;;;;4989593;28;20077;-66
2022/01/06 06:31:26;;;;;;;6.20;3.50;;;;;;;;;;4988890;28;20045;-62
2022/01/06 06:33:52;;;;;;;12.23;4.13;;;;;;;;;;4978218;28;20105;-64
2022/01/06 06:36:18;;;;;;;9.15;4.72;;;;;;;;;;4991836;28;20026;-64
2022/01/06 06:38:44;;;;;;;9.68;4.25;;;;;;;;;;4991566;28;20070;-64
2022/01/06 06:41:11;;;;;;;5.72;3.40;;;;;;;;;;4994322;28;20093;-65
2022/01/06 06:43:37;;;;;;;13.95;3.63;;;;;;;;;;4994251;28;20113;-64
2022/01/06 06:46:03;;;;;;;6.55;3.35;;;;;;;;;;4994547;28;20026;-64
2022/01/06 06:48:29;;;;;;;10.68;3.80;;;;;;;;;;4995646;28;20030;-64
2022/01/06 06:50:55;;;;;;;4.68;3.25;;;;;;;;;;4995454;28;20018;-64
2022/01/06 06:53:21;;;;;;;11.27;5.07;;;;;;;;;;4995928;28;20026;-64
2022/01/06 06:55:47;;;;;;;10.88;3.92;;;;;;;;;;4995420;28;20040;-64
2022/01/06 06:58:13;;;;;;;10.57;3.90;;;;;;;;;;4995052;28;20372;-64
2022/01/06 07:00:39;;;;;;;8.13;3.47;;;;;;;;;;4994359;28;20038;-64
2022/01/06 07:03:05;;;;;;;8.80;3.75;;;;;;;;;;4992276;28;20114;-64
2022/01/06 07:05:32;;;;;;;13.18;3.83;;;;;;;;;;4993962;28;20118;-65
2022/01/06 07:07:58;;;;;;;11.52;3.47;;;;;;;;;;4994695;28;20476;-63
2022/01/06 07:10:24;;;;;;;7.57;3.65;;;;;;;;;;4995377;28;20061;-63
2022/01/06 07:12:51;;;;;;;9.88;3.90;;;;;;;;;;4994254;28;20030;-63
2022/01/06 07:15:17;;;;;;;9.18;3.83;;;;;;;;;;4994721;28;20023;-63
2022/01/06 07:17:44;;;;;;;9.20;3.45;;;;;;;;;;4995102;28;20041;-63
2022/01/06 07:20:10;;;;;;;8.32;3.55;;;;;;;;;;4993881;28;20423;-68
2022/01/06 07:22:38;;;;;;;9.32;3.53;;;;;;;;;;4994303;28;20050;-63
2022/01/06 07:25:05;;;;;;;11.63;4.05;;;;;;;;;;4995093;28;20026;-63
2022/01/06 07:27:31;;;;;;;7.55;3.53;;;;;;;;;;4992202;28;20116;-63
2022/01/06 07:29:57;;;;;;;13.10;4.10;;;;;;;;;;4997999;28;20045;-64
2022/01/06 07:32:24;;;;;;;8.07;3.53;;;;;;;;;;4995720;28;20489;-64
2022/01/06 07:34:51;;;;;;;9.05;3.35;;;;;;;;;;4995301;28;20045;-64
2022/01/06 07:37:17;;;;;;;9.73;3.65;;;;;;;;;;4992213;28;20038;-64
2022/01/06 07:39:43;;;;;;;13.48;3.60;;;;;;;;;;5001251;28;20030;-64
2022/01/06 07:42:11;;;;;;;10.15;3.55;;;;;;;;;;4999044;28;20054;-64
2022/01/06 07:44:37;;;;;;;8.25;3.70;;;;;;;;;;4994232;28;20029;-64
2022/01/06 07:47:03;;;;;;;7.25;3.83;;;;;;;;;;4994515;28;20100;-63
2022/01/06 07:49:29;;;;;;;10.88;3.83;;;;;;;;;;4992429;28;20114;-63
2022/01/06 07:51:56;;;;;;;11.18;3.83;;;;;;;;;;5004916;28;20033;-63
2022/01/06 07:54:25;;;;;;;9.18;3.95;;;;;;;;;;4996567;28;20048;-63
2022/01/06 07:56:51;;;;;;;10.68;3.17;;;;;;;;;;4992793;28;20023;-63
2022/01/06 07:59:17;;;;;;;15.13;3.95;;;;;;;;;;5007827;28;20529;-63
2022/01/06 08:01:43;;;;;;;11.02;4.43;;;;;;;;;;4990397;28;20102;-63
2022/01/06 08:04:10;;;;;;;9.15;3.60;;;;;;;;;;4992306;28;20448;-63
2022/01/06 08:06:36;;;;;;;9.23;4.05;;;;;;;;;;4994146;28;20052;-63
2022/01/06 08:09:02;;;;;;;15.77;3.70;;;;;;;;;;4994046;28;20038;-63
2022/01/06 08:11:28;;;;;;;6.57;3.30;;;;;;;;;;4994959;28;20037;-64
2022/01/06 08:13:54;;;;;;;10.95;3.25;;;;;;;;;;4999059;28;20390;-63
2022/01/06 08:16:20;;;;;;;6.03;2.92;;;;;;;;;;4981142;28;20045;-63
2022/01/06 08:18:46;;;;;;;8.93;3.17;;;;;;;;;;5000644;28;20042;-63
2022/01/06 08:21:13;;;;;;;7.70;3.40;;;;;;;;;;4996973;28;20034;-64
2022/01/06 08:23:39;;;;;;;8.82;3.50;;;;;;;;;;4996674;28;20045;-64
2022/01/06 08:26:05;;;;;;;7.60;3.00;;;;;;;;;;5003858;28;20556;-64
2022/01/06 08:28:31;;;;;;;10.60;3.15;;;;;;;;;;4996990;28;20037;-63
2022/01/06 08:30:57;;;;;;;8.23;3.10;;;;;;;;;;4991906;28;20030;-63
2022/01/06 08:33:23;;;;;;;5.55;2.88;;;;;;;;;;5002605;28;20391;-64
2022/01/06 08:35:49;;;;;;;5.43;2.88;;;;;;;;;;4992294;28;20026;-63
2022/01/06 08:38:15;;;;;;;5.68;2.72;;;;;;;;;;4995877;28;20133;-63
2022/01/06 08:40:42;;;;;;;9.57;3.22;;;;;;;;;;4997704;28;20048;-63
2022/01/06 08:43:08;;;;;;;7.15;2.95;;;;;;;;;;4999845;28;20022;-63
2022/01/06 08:45:34;;;;;;;8.02;3.15;;;;;;;;;;4994538;28;20033;-64
2022/01/06 08:48:01;;;;;;;10.60;3.20;;;;;;;;;;5002149;28;20038;-63
2022/01/06 08:50:28;;;;;;;13.20;4.10;;;;;;;;;;4994781;28;20524;-63
2022/01/06 08:52:54;;;;;;;12.23;3.35;;;;;;;;;;5000046;28;20045;-63
2022/01/06 08:55:20;;;;;;;9.27;3.00;;;;;;;;;;5000469;28;20033;-63
2022/01/06 08:57:46;;;;;;;10.48;2.83;;;;;;;;;;5000178;28;20029;-63
2022/01/06 09:00:12;;;;;;;8.32;3.60;;;;;;;;;;4993124;28;20038;-63
2022/01/06 09:02:39;;;;;;;14.77;3.33;;;;;;;;;;4994454;28;20039;-63
2022/01/06 09:05:10;;;;;;;6.40;2.92;;;;;;;;;;4996727;28;20084;-63
2022/01/06 09:07:36;;;;;;;11.68;3.15;;;;;;;;;;4998365;28;20072;-63
2022/01/06 09:10:04;;;;;;;5.97;3.72;;;;;;;;;;4996524;28;20570;-63
2022/01/06 09:12:30;;;;;;;11.05;3.55;;;;;;;;;;4999390;28;20026;-64
2022/01/06 09:14:56;;;;;;;11.18;3.75;;;;;;;;;;5002821;28;20037;-63
2022/01/06 09:17:22;;;;;;;8.32;3.65;;;;;;;;;;4993052;28;20030;-63
2022/01/06 09:19:48;;;;;;;8.93;2.67;;;;;;;;;;4990160;28;20062;-63
2022/01/06 09:22:14;;;;;;;8.93;3.20;;;;;;;;;;5000096;28;20038;-67
2022/01/06 09:24:40;;;;;;;4.32;2.63;;;;;;;;;;4999062;28;20038;-63
2022/01/06 09:27:06;;;;;;;5.07;2.47;;;;;;;;;;4994927;28;20030;-63
2022/01/06 09:29:32;;;;;;;5.70;3.60;;;;;;;;;;4991934;28;20125;-63
2022/01/06 09:31:58;;;;;;;7.85;5.10;;;;;;;;;;4995046;28;20026;-63
2022/01/06 09:34:24;;;;;;;9.50;2.90;;;;;;;;;;5006794;28;20022;-63
2022/01/06 09:36:51;;;;;;;11.98;3.08;;;;;;;;;;4990732;28;20065;-63
2022/01/06 09:39:17;;;;;;;8.05;3.05;;;;;;;;;;5001580;28;20590;-63
2022/01/06 09:41:44;;;;;;;7.15;2.25;;;;;;;;;;4997792;28;20073;-63
2022/01/06 09:44:11;;;;;;;8.60;2.72;;;;;;;;;;4993244;28;20030;-63
2022/01/06 09:46:37;;;;;;;11.10;4.20;;;;;;;;;;4994583;28;20414;-63
2022/01/06 09:49:03;;;;;;;7.05;2.72;;;;;;;;;;4999897;28;20482;-63
2022/01/06 09:51:29;;;;;;;7.70;2.33;;;;;;;;;;4999762;28;20030;-63
2022/01/06 09:53:56;;;;;;;8.63;2.58;;;;;;;;;;4992621;28;20227;-64
2022/01/06 09:56:22;;;;;;;7.80;2.67;;;;;;;;;;4994984;28;20030;-63
2022/01/06 09:58:49;;;;;;;6.18;2.58;;;;;;;;;;4998901;28;20018;-63
2022/01/06 10:01:15;;;;;;;6.63;2.00;;;;;;;;;;4998936;28;20027;-63
2022/01/06 10:03:46;;;;;;;5.53;2.15;;;;;;;;;;5004938;28;20034;-63
2022/01/06 10:06:26;;;;;;;4.97;2.50;;;;;;;;;;4992204;28;20066;-64
2022/01/06 10:08:59;;;;;;;7.43;2.28;;;;;;;;;;4995732;28;20113;-64
2022/01/06 10:11:27;;;;;;;19.60;2.75;;;;;;;;;;4996160;28;20025;-64
2022/01/06 10:13:55;;;;;;;9.75;3.00;;;;;;;;;;5003734;28;20014;-64
2022/01/06 10:16:22;;;;;;;12.48;2.85;;;;;;;;;;5004081;28;20057;-64
2022/01/06 10:18:54;;;;;;;5.65;2.65;;;;;;;;;;5007480;28;20367;-64
2022/01/06 10:21:20;;;;;;;7.33;2.40;;;;;;;;;;4996668;28;20035;-64
2022/01/06 10:23:57;;;;;;;4.15;2.20;;;;;;;;;;5000297;28;20118;-64
2022/01/06 10:26:23;;;;;;;11.80;2.22;;;;;;;;;;4996895;28;20045;-64
2022/01/06 10:28:51;;;;;;;7.68;2.65;;;;;;;;;;4983733;28;20068;-64
2022/01/06 10:31:18;;;;;;;6.95;2.20;;;;;;;;;;4999604;28;20021;-64
2022/01/06 10:33:44;;;;;;;7.22;2.83;;;;;;;;;;5005850;28;20022;-64
2022/01/06 10:36:10;;;;;;;7.72;2.40;;;;;;;;;;5002118;28;20030;-64
2022/01/06 10:38:37;;;;;;;5.57;2.50;;;;;;;;;;4997796;28;20050;-64
2022/01/06 10:41:17;;;;;;;11.52;2.60;;;;;;;;;;4995912;28;20506;-64
2022/01/06 10:43:50;;;;;;;12.93;2.40;;;;;;;;;;4986343;28;20023;-64
2022/01/06 10:46:26;;;;;;;9.30;2.22;;;;;;;;;;4993934;28;20038;-64
2022/01/06 10:48:57;;;;;;;2.90;2.17;;;;;;;;;;4997893;28;20033;-65
2022/01/06 10:51:38;;;;;;;7.82;2.45;;;;;;;;;;4993571;28;20035;-65
2022/01/06 10:54:04;;;;;;;6.82;2.47;;;;;;;;;;4996398;28;20018;-65
2022/01/06 10:56:31;;;;;;;4.85;2.40;;;;;;;;;;4996512;28;20442;-65
2022/01/06 10:58:58;;;;;;;9.02;2.38;;;;;;;;;;5002855;28;20574;-65
2022/01/06 11:01:24;;;;;;;5.22;1.98;;;;;;;;;;5002169;28;20101;-65
2022/01/06 11:03:50;;;;;;;5.63;1.85;;;;;;;;;;5008932;28;20019;-65
2022/01/06 11:06:16;;;;;;;6.30;1.48;;;;;;;;;;4995774;28;20105;-65
2022/01/06 11:08:43;;;;;;;5.65;2.00;;;;;;;;;;4992717;28;20030;-64
2022/01/06 11:13:36;;;;;;;10.70;2.53;;;;;;;;;;5005172;28;20037;-64
2022/01/06 11:16:02;;;;;;;7.60;1.83;;;;;;;;;;4997875;28;20026;-64
2022/01/06 11:18:29;;;;;;;7.47;2.45;;;;;;;;;;5002380;28;20034;-64
2022/01/06 11:21:08;;;;;;;5.53;2.28;;;;;;;;;;5005242;28;20104;-64
2022/01/06 11:23:34;;;;;;;4.93;1.88;;;;;;;;;;4993777;28;20030;-64
2022/01/06 11:26:04;;;;;;;8.93;2.05;;;;;;;;;;4993937;28;20034;-64
2022/01/06 11:28:31;;;;;;;9.98;1.85;;;;;;;;;;4998400;28;20023;-64
2022/01/06 11:30:57;;;;;;;5.22;1.83;;;;;;;;;;5001323;28;20105;-64
2022/01/06 11:33:23;;;;;;;4.07;1.50;;;;;;;;;;4998584;28;20034;-64
2022/01/06 11:35:57;;;;;;;6.13;1.83;;;;;;;;;;4997759;28;20018;-64
2022/01/06 11:38:26;;;;;;;5.45;1.27;;;;;;;;;;5000338;28;20046;-64
2022/01/06 11:41:12;;;;;;;7.25;1.80;;;;;;;;;;4996048;28;20022;-64
2022/01/06 11:43:42;;;;;;;9.13;2.72;;;;;;;;;;4996965;28;20028;-64
2022/01/06 11:46:09;;;;;;;4.15;1.52;;;;;;;;;;5005780;28;20065;-64
2022/01/06 11:48:45;;;;;;;6.93;1.65;;;;;;;;;;4996278;28;20513;-65
2022/01/06 11:51:21;;;;;;;4.35;1.35;;;;;;;;;;5003131;28;20062;-64
2022/01/06 11:53:47;;;;;;;7.28;1.80;;;;;;;;;;5003382;28;20483;-64
2022/01/06 11:56:14;;;;;;;4.63;1.58;;;;;;;;;;5002107;28;20018;-64
2022/01/06 11:58:40;;;;;;;9.05;2.35;;;;;;;;;;5001973;28;20034;-64
2022/01/06 12:01:12;;;;;;;4.03;1.73;;;;;;;;;;4995368;28;20058;-64
2022/01/06 12:03:40;;;;;;;3.58;1.50;;;;;;;;;;4991771;28;20034;-64
2022/01/06 12:06:07;;;;;;;7.93;1.70;;;;;;;;;;4989855;28;20034;-64
2022/01/06 12:08:39;;;;;;;7.30;1.95;;;;;;;;;;4991476;28;20030;-64
2022/01/06 12:11:05;;;;;;;;;;;;;;;;;;4990676;28;20040;-64
2022/01/06 12:13:42;;;;;;;10.52;1.67;;;;;;;;;;4997897;28;20333;-65
2022/01/06 12:16:08;;;;;;;4.18;1.60;;;;;;;;;;4995025;28;20014;-65
2022/01/06 12:18:35;;;;;;;10.10;1.60;;;;;;;;;;4992546;28;20030;-65
2022/01/06 12:21:02;;;;;;;5.93;1.90;;;;;;;;;;4993541;28;20025;-64
2022/01/06 12:23:28;;;;;;;9.65;1.92;;;;;;;;;;4992927;28;20069;-65
2022/01/06 12:25:55;;;;;;;3.30;1.67;;;;;;;;;;4994041;28;20021;-64
2022/01/06 12:28:21;;;;;;;5.55;1.60;;;;;;;;;;5002016;28;20030;-65
2022/01/06 12:30:48;;;;;;;7.22;1.85;;;;;;;;;;4997276;28;20022;-64
2022/01/06 12:33:14;;;;;;;10.32;1.90;;;;;;;;;;4997853;28;20029;-65
2022/01/06 12:35:47;;;;;;;8.23;2.00;;;;;;;;;;4997488;28;20487;-65
2022/01/06 12:38:14;;;;;;;9.35;2.42;;;;;;;;;;4978348;28;20052;-65
2022/01/06 12:40:41;;;;;;;4.72;1.40;;;;;;;;;;4997169;28;20037;-65
2022/01/06 12:43:18;;;;;;;6.32;2.13;;;;;;;;;;4999374;28;20034;-65
2022/01/06 12:45:45;;;;;;;10.85;2.13;;;;;;;;;;4998797;28;20113;-65
2022/01/06 12:48:14;;;;;;;5.55;1.88;;;;;;;;;;4996912;28;20027;-65
2022/01/06 12:50:43;;;;;;;7.57;1.70;;;;;;;;;;5000214;28;20026;-65
2022/01/06 12:53:10;;;;;;;7.72;2.00;;;;;;;;;;4993729;28;20030;-65
2022/01/06 12:55:43;;;;;;;10.88;2.00;;;;;;;;;;4993427;28;20080;-64
2022/01/06 12:58:09;;;;;;;5.35;1.70;;;;;;;;;;4989926;28;20066;-64
2022/01/06 13:00:35;;;;;;;6.30;1.55;;;;;;;;;;4989110;28;20030;-64
2022/01/06 13:03:04;;;;;;;9.30;1.70;;;;;;;;;;4988550;28;20125;-64
2022/01/06 13:05:31;;;;;;;8.38;1.73;;;;;;;;;;4990132;28;20096;-64
2022/01/06 13:08:04;;;;;;;6.68;1.60;;;;;;;;;;4989314;28;20041;-64
2022/01/06 13:10:30;;;;;;;7.13;1.67;;;;;;;;;;4996076;28;20033;-63
2022/01/06 13:13:03;;;;;;;6.22;1.77;;;;;;;;;;4995314;28;20026;-63
2022/01/06 13:15:33;;;;;;;3.95;1.60;;;;;;;;;;4986088;28;20031;-63
2022/01/06 13:18:00;;;;;;;6.88;1.90;;;;;;;;;;4993526;28;20053;-64
2022/01/06 13:20:26;;;;;;;5.38;1.80;;;;;;;;;;4994492;28;20068;-64
2022/01/06 13:25:31;;;;;;;7.25;2.22;;;;;;;;;;4994322;28;20510;-63
2022/01/06 13:27:58;;;;;;;7.82;3.83;;;;;;;;;;4992932;28;20072;-63
2022/01/06 13:30:36;;;;;;;15.82;3.67;;;;;;;;;;4989848;28;20037;-63
2022/01/06 13:33:06;;;;;;;11.27;3.30;;;;;;;;;;4990371;28;20485;-63
2022/01/06 13:35:32;;;;;;;7.30;2.50;;;;;;;;;;4985018;28;20022;-63
2022/01/06 13:37:58;;;;;;;11.25;3.25;;;;;;;;;;4972216;28;20145;-63
2022/01/06 13:40:25;;;;;;;12.63;3.40;;;;;;;;;;4985816;28;20487;-64
2022/01/06 13:42:52;;;;;;;7.80;3.78;;;;;;;;;;4987024;28;20706;-64
2022/01/06 13:45:25;;;;;;;12.60;4.60;;;;;;;;;;4987954;28;20498;-64
2022/01/06 13:53:50;;;;;;;6.97;3.03;;;;;;;;;;4987023;28;20058;-64
2022/01/06 13:56:32;;;;;;;6.65;2.75;;;;;;;;;;4997662;28;20132;-64
2022/01/06 13:59:04;;;;;;;5.60;2.00;;;;;;;;;;4997692;28;20064;-64
2022/01/06 14:01:30;;;;;;;6.67;1.93;;;;;;;;;;4993105;28;20030;-64
2022/01/06 14:03:57;;;;;;;15.43;1.95;;;;;;;;;;4992182;28;20116;-64
2022/01/06 14:06:24;;;;;;;6.53;1.80;;;;;;;;;;5000904;28;20030;-64
2022/01/06 14:08:50;;;;;;;6.28;2.42;;;;;;;;;;4984779;28;20035;-64
2022/01/06 14:11:17;;;;;;;9.80;1.92;;;;;;;;;;4975874;28;20034;-64
2022/01/06 14:13:47;;;;;;;7.03;1.92;;;;;;;;;;5001356;28;20475;-64
2022/01/06 14:16:13;;;;;;;5.90;1.88;;;;;;;;;;4995746;28;20019;-64
2022/01/06 14:18:40;;;;;;;7.38;1.80;;;;;;;;;;4990903;28;20031;-64
2022/01/06 14:21:06;;;;;;;7.60;1.70;;;;;;;;;;5003233;28;20052;-64
2022/01/06 14:23:34;;;;;;;6.15;1.80;;;;;;;;;;4998029;28;20045;-64
2022/01/06 14:26:00;;;;;;;8.85;2.30;;;;;;;;;;5003109;28;20034;-62
2022/01/06 14:28:27;;;;;;;10.57;1.95;;;;;;;;;;4995102;28;20031;-64
2022/01/06 14:30:54;;;;;;;7.78;1.75;;;;;;;;;;4985905;28;20053;-64
2022/01/06 14:33:20;;;;;;;9.60;2.30;;;;;;;;;;4990381;28;20037;-64
2022/01/06 14:35:46;;;;;;;9.38;2.25;;;;;;;;;;4992285;28;20030;-64
2022/01/06 14:38:12;;;;;;;8.93;2.05;;;;;;;;;;4988511;28;20057;-64
2022/01/06 14:40:38;;;;;;;8.80;2.88;;;;;;;;;;4992466;28;20382;-64
2022/01/06 14:43:04;;;;;;;8.27;2.00;;;;;;;;;;4986789;28;20029;-64
2022/01/06 14:45:31;;;;;;;6.90;2.75;;;;;;;;;;4992292;28;20034;-64
2022/01/06 14:47:58;;;;;;;8.32;2.80;;;;;;;;;;4983270;28;20053;-64
2022/01/06 14:50:24;;;;;;;9.32;2.25;;;;;;;;;;4987997;28;20018;-64
2022/01/06 14:52:50;;;;;;;8.35;1.63;;;;;;;;;;4987344;28;20054;-64